Time;durP1;ratioP1;P1;durP2;ratioP2;P2;SDS_P1;SDS_P2;PMS_P1;PMS_P2;Temp;Humidity;BMP_temperature;BMP_pressure;BME280_temperature;BME280_humidity;BME280_pressure;Samples;Min_cycle;Max_cycle;Signal;HPM_P1;HPM_P2
2022/10/18 00:06:34;;;;;;;0.20;0.00;;;20.30;99.90;;;;;;25645080;23;20474;-85
2022/10/18 00:16:45;;;;;;;0.20;0.00;;;20.40;99.90;;;;;;25644159;23;20447;-84
2022/10/18 00:26:48;;;;;;;0.20;0.00;;;20.30;99.90;;;;;;25615938;22;20447;-82
2022/10/18 00:36:54;;;;;;;0.20;0.00;;;20.50;99.90;;;;;;25590498;23;20443;-81
2022/10/18 00:47:02;;;;;;;0.20;0.00;;;20.60;99.90;;;;;;25616219;23;20458;-80
2022/10/18 00:57:07;;;;;;;0.20;0.00;;;20.60;99.90;;;;;;25640306;23;20359;-82
2022/10/18 01:07:20;;;;;;;0.20;0.08;;;20.70;99.90;;;;;;25643197;22;20431;-80
2022/10/18 01:17:32;;;;;;;0.20;0.00;;;20.60;99.90;;;;;;25623335;22;20411;-84
2022/10/18 01:27:47;;;;;;;0.20;0.00;;;20.60;99.90;;;;;;25645784;23;20371;-84
2022/10/18 01:37:56;;;;;;;0.20;0.00;;;20.50;99.90;;;;;;25642029;23;20379;-84
2022/10/18 01:48:01;;;;;;;0.20;0.00;;;20.30;99.90;;;;;;25659637;23;20371;-86
2022/10/18 01:58:15;;;;;;;0.20;0.00;;;20.30;99.90;;;;;;25632629;23;20458;-83
2022/10/18 02:08:25;;;;;;;0.20;0.00;;;20.00;99.90;;;;;;25614294;23;20404;-84
2022/10/18 02:18:36;;;;;;;0.20;0.10;;;19.90;99.90;;;;;;25614193;23;20400;-86
2022/10/18 02:28:40;;;;;;;0.20;0.00;;;19.90;99.90;;;;;;25641961;23;20417;-85
2022/10/18 02:38:46;;;;;;;0.20;0.00;;;19.80;99.90;;;;;;25614165;23;20364;-85
2022/10/18 02:48:50;;;;;;;0.20;0.00;;;19.70;99.90;;;;;;25659752;23;20421;-84
2022/10/18 02:58:55;;;;;;;0.20;0.00;;;19.60;99.90;;;;;;25651942;23;20458;-83
2022/10/18 03:08:59;;;;;;;0.20;0.00;;;19.50;99.90;;;;;;25654405;23;20392;-83
2022/10/18 03:19:04;;;;;;;0.20;0.00;;;19.50;99.90;;;;;;25650821;23;20388;-85
2022/10/18 03:29:10;;;;;;;0.20;0.00;;;19.30;99.90;;;;;;25650661;23;20366;-84
2022/10/18 03:39:15;;;;;;;0.20;0.00;;;19.20;99.90;;;;;;25637220;23;20383;-84
2022/10/18 03:49:19;;;;;;;0.20;0.00;;;19.20;99.90;;;;;;25650356;23;20376;-85
2022/10/18 03:59:24;;;;;;;0.20;0.00;;;19.20;99.90;;;;;;25645504;23;20375;-82
2022/10/18 04:09:28;;;;;;;0.20;0.00;;;19.10;99.90;;;;;;25626529;23;20386;-83
2022/10/18 04:19:33;;;;;;;0.20;0.00;;;19.10;99.90;;;;;;25643872;23;20376;-87
2022/10/18 04:29:37;;;;;;;0.20;0.00;;;19.10;99.90;;;;;;25669831;23;20380;-85
2022/10/18 04:39:45;;;;;;;0.20;0.00;;;19.20;99.90;;;;;;25629642;23;20360;-85
2022/10/18 04:49:55;;;;;;;0.20;0.00;;;19.10;99.90;;;;;;25621819;23;20387;-86
2022/10/18 05:00:00;;;;;;;0.20;0.00;;;18.90;99.90;;;;;;25651950;23;20375;-88
2022/10/18 05:10:04;;;;;;;0.20;0.00;;;18.90;99.90;;;;;;25619054;23;20454;-83
2022/10/18 05:20:10;;;;;;;0.20;0.00;;;19.00;99.90;;;;;;25617687;23;20375;-85
2022/10/18 05:30:14;;;;;;;0.20;0.00;;;19.10;99.90;;;;;;25648710;23;20375;-85
2022/10/18 05:40:19;;;;;;;0.20;0.00;;;19.00;99.90;;;;;;25644402;23;20375;-82
2022/10/18 05:50:23;;;;;;;0.20;0.00;;;19.30;99.90;;;;;;25641034;23;20404;-83
2022/10/18 06:00:28;;;;;;;0.20;0.00;;;19.70;99.90;;;;;;25632199;23;20364;-82
2022/10/18 06:10:32;;;;;;;0.20;0.00;;;20.00;99.90;;;;;;25641265;23;20386;-80
2022/10/18 06:20:37;;;;;;;0.20;0.00;;;20.10;99.90;;;;;;25644828;23;20367;-82
2022/10/18 06:30:41;;;;;;;0.20;0.00;;;20.20;99.90;;;;;;25646956;23;20379;-75
2022/10/18 06:40:48;;;;;;;0.20;0.00;;;20.30;99.90;;;;;;25643948;23;20436;-83
2022/10/18 06:50:53;;;;;;;0.20;0.00;;;20.50;99.90;;;;;;25644837;23;20376;-78
2022/10/18 07:00:59;;;;;;;0.20;0.00;;;20.60;99.90;;;;;;25642885;23;20374;-83
2022/10/18 07:11:03;;;;;;;0.20;0.00;;;20.80;99.90;;;;;;25612705;23;20375;-81
2022/10/18 07:21:10;;;;;;;0.20;0.00;;;21.00;99.90;;;;;;25616397;23;20383;-78
2022/10/18 07:31:14;;;;;;;0.20;0.00;;;21.00;99.90;;;;;;25643634;23;20392;-83
2022/10/18 07:41:20;;;;;;;0.20;0.00;;;21.50;99.90;;;;;;25646111;23;20367;-80
2022/10/18 07:51:23;;;;;;;0.20;0.00;;;21.60;99.90;;;;;;25653484;23;20406;-85
2022/10/18 08:01:29;;;;;;;0.20;0.00;;;21.80;99.90;;;;;;25653265;23;20466;-80
2022/10/18 08:11:33;;;;;;;0.20;0.00;;;22.00;99.90;;;;;;25648210;23;20368;-84
2022/10/18 08:21:38;;;;;;;0.20;0.00;;;22.40;99.90;;;;;;25620732;23;20368;-86
2022/10/18 08:31:43;;;;;;;0.20;0.00;;;22.90;99.90;;;;;;25621398;23;20383;-85
2022/10/18 08:42:01;;;;;;;0.20;0.00;;;23.00;99.90;;;;;;25642947;23;20441;-87
2022/10/18 08:52:14;;;;;;;0.20;0.00;;;23.60;99.90;;;;;;25650980;23;20391;-88
2022/10/18 09:02:36;;;;;;;0.20;0.00;;;23.80;99.90;;;;;;25645847;23;20379;-81
2022/10/18 09:13:05;;;;;;;0.20;0.00;;;24.10;99.90;;;;;;25639864;23;20374;-91
2022/10/18 09:23:18;;;;;;;0.20;0.00;;;24.40;99.90;;;;;;25617833;23;20364;-89
2022/10/18 09:33:40;;;;;;;0.20;0.00;;;24.90;99.90;;;;;;25593933;23;20554;-88
2022/10/18 09:43:52;;;;;;;0.20;0.00;;;24.70;99.90;;;;;;25645970;23;20389;-88
2022/10/18 09:54:09;;;;;;;0.20;0.00;;;25.00;99.90;;;;;;25644011;23;20384;-89
2022/10/18 10:04:14;;;;;;;0.20;0.00;;;24.60;99.90;;;;;;25623206;23;20368;-85
2022/10/18 10:14:22;;;;;;;0.20;0.00;;;24.40;99.90;;;;;;25620821;23;20383;-87
2022/10/18 10:24:35;;;;;;;0.20;0.00;;;24.90;99.90;;;;;;25647447;23;20432;-86
2022/10/18 10:34:39;;;;;;;0.20;0.00;;;25.00;99.90;;;;;;25621651;23;20454;-84
2022/10/18 10:44:54;;;;;;;0.20;0.00;;;25.80;99.90;;;;;;25646029;23;20371;-87
2022/10/18 10:55:02;;;;;;;0.20;0.00;;;26.10;99.90;;;;;;25621405;23;20772;-86
2022/10/18 11:05:28;;;;;;;0.20;0.00;;;26.70;99.90;;;;;;25645070;23;20352;-83
2022/10/18 11:15:36;;;;;;;0.80;0.80;;;26.00;99.90;;;;;;25649430;23;20366;-84
2022/10/18 11:26:03;;;;;;;0.20;0.00;;;26.80;99.90;;;;;;25648185;23;20368;-85
2022/10/18 11:36:11;;;;;;;0.20;0.00;;;27.30;99.90;;;;;;25594626;23;20375;-78
2022/10/18 11:46:26;;;;;;;0.20;0.00;;;27.20;99.90;;;;;;25616247;23;20455;-84
2022/10/18 11:56:44;;;;;;;0.20;0.00;;;27.60;99.90;;;;;;25643696;23;20375;-85
2022/10/18 12:06:53;;;;;;;0.20;0.00;;;27.50;99.90;;;;;;25643732;23;20360;-82
2022/10/18 12:17:02;;;;;;;0.20;0.00;;;27.40;99.90;;;;;;25591529;23;20386;-85
2022/10/18 12:27:36;;;;;;;0.20;0.07;;;27.30;99.90;;;;;;25614882;23;20364;-83
2022/10/18 12:37:55;;;;;;;0.20;0.00;;;27.90;99.90;;;;;;25637446;23;20372;-82
2022/10/18 12:48:02;;;;;;;0.20;0.00;;;27.80;99.90;;;;;;25588613;23;20366;-81
2022/10/18 12:58:28;;;;;;;0.20;0.00;;;27.80;99.90;;;;;;25644015;23;20379;-85
2022/10/18 13:09:04;;;;;;;0.20;0.00;;;27.20;99.90;;;;;;25643393;23;20348;-81
2022/10/18 13:19:20;;;;;;;0.20;0.00;;;27.00;99.90;;;;;;25643393;23;20374;-82
2022/10/18 13:29:41;;;;;;;0.20;0.00;;;28.20;99.90;;;;;;25645238;23;20368;-80
2022/10/18 13:39:48;;;;;;;0.20;0.00;;;28.60;99.90;;;;;;25642659;23;20383;-83
2022/10/18 13:50:28;;;;;;;0.20;0.00;;;28.90;99.90;;;;;;25638955;23;20363;-83
2022/10/18 14:00:50;;;;;;;0.20;0.00;;;28.70;99.90;;;;;;25608561;23;20394;-83
2022/10/18 14:11:01;;;;;;;0.20;0.00;;;29.30;99.90;;;;;;25609554;23;20379;-84
2022/10/18 14:21:13;;;;;;;0.20;0.00;;;29.30;99.90;;;;;;25638511;23;20372;-85
2022/10/18 14:31:22;;;;;;;0.20;0.00;;;29.50;99.90;;;;;;25584597;23;20384;-83
2022/10/18 14:41:28;;;;;;;0.20;0.00;;;29.70;99.90;;;;;;25614231;23;20371;-86
2022/10/18 14:51:35;;;;;;;0.20;0.00;;;29.50;99.90;;;;;;25618176;23;20384;-83
2022/10/18 15:01:51;;;;;;;0.20;0.00;;;28.70;99.90;;;;;;25616719;23;20356;-80
2022/10/18 15:11:56;;;;;;;0.20;0.00;;;27.10;99.90;;;;;;25642336;23;20360;-87
2022/10/18 15:22:03;;;;;;;0.20;0.00;;;25.90;99.90;;;;;;25591919;23;20383;-84
2022/10/18 15:32:29;;;;;;;0.20;0.00;;;26.10;99.90;;;;;;25610901;23;20384;-83
2022/10/18 15:42:39;;;;;;;0.20;0.00;;;26.30;99.90;;;;;;25589528;23;20446;-84
2022/10/18 15:52:43;;;;;;;0.20;0.00;;;25.80;99.90;;;;;;25642766;23;20363;-84
2022/10/18 16:02:48;;;;;;;0.20;0.00;;;25.30;99.90;;;;;;25622388;23;20356;-82
2022/10/18 16:12:54;;;;;;;0.20;0.10;;;24.70;99.90;;;;;;25644143;23;20360;-84
2022/10/18 16:23:00;;;;;;;0.20;0.00;;;24.50;99.90;;;;;;25642047;23;20395;-83
2022/10/18 16:33:03;;;;;;;0.20;0.00;;;24.30;99.90;;;;;;25615849;23;20383;-84
2022/10/18 16:43:09;;;;;;;0.20;0.00;;;24.00;99.90;;;;;;25638749;23;20375;-82
2022/10/18 16:53:13;;;;;;;0.50;0.50;;;23.60;99.90;;;;;;25615422;23;20380;-80
2022/10/18 17:03:19;;;;;;;0.20;0.10;;;23.50;99.90;;;;;;25610705;23;20360;-80
2022/10/18 17:13:24;;;;;;;0.20;0.00;;;23.40;99.90;;;;;;25610086;23;20394;-79
2022/10/18 17:23:29;;;;;;;0.20;0.00;;;23.30;99.90;;;;;;25638224;23;20367;-85
2022/10/18 17:33:33;;;;;;;0.20;0.00;;;23.00;99.90;;;;;;25641289;23;20367;-86
2022/10/18 17:43:39;;;;;;;0.20;0.00;;;22.80;99.90;;;;;;25614136;23;20379;-85
2022/10/18 17:53:43;;;;;;;0.20;0.00;;;22.80;99.90;;;;;;25636455;23;20388;-82
2022/10/18 18:03:48;;;;;;;0.20;0.00;;;22.60;99.90;;;;;;25640748;23;20375;-79
2022/10/18 18:13:54;;;;;;;0.20;0.00;;;22.30;99.90;;;;;;25612654;23;20379;-86
2022/10/18 18:23:59;;;;;;;0.20;0.00;;;22.20;99.90;;;;;;25641836;23;20372;-83
2022/10/18 18:34:03;;;;;;;0.20;0.00;;;21.80;99.90;;;;;;25618191;22;20409;-87
2022/10/18 18:44:09;;;;;;;0.20;0.00;;;21.70;99.90;;;;;;25617173;22;20367;-73
2022/10/18 18:54:14;;;;;;;0.20;0.00;;;21.60;99.90;;;;;;25644032;23;20439;-81
2022/10/18 19:04:20;;;;;;;0.20;0.00;;;21.40;99.90;;;;;;25623518;23;20370;-83
2022/10/18 19:14:24;;;;;;;0.20;0.00;;;21.30;99.90;;;;;;25654303;23;20375;-87
2022/10/18 19:24:31;;;;;;;0.20;0.00;;;21.10;99.90;;;;;;25621337;23;20394;-85
2022/10/18 19:34:35;;;;;;;0.20;0.10;;;20.90;99.90;;;;;;25647922;23;20397;-87
2022/10/18 19:44:40;;;;;;;0.20;0.00;;;20.80;99.90;;;;;;25616084;23;20363;-87
2022/10/18 19:54:44;;;;;;;0.20;0.00;;;20.60;99.90;;;;;;25649364;23;20430;-86
2022/10/18 20:04:49;;;;;;;0.20;0.00;;;20.40;99.90;;;;;;25649505;23;20368;-81
2022/10/18 20:14:53;;;;;;;0.20;0.07;;;20.40;99.90;;;;;;25612393;23;20756;-80
2022/10/18 20:24:58;;;;;;;0.20;0.00;;;20.30;99.90;;;;;;25640995;23;20379;-84
2022/10/18 20:35:02;;;;;;;0.20;0.00;;;20.30;99.90;;;;;;25641420;23;20388;-77
2022/10/18 20:45:09;;;;;;;0.20;0.00;;;20.40;99.90;;;;;;25639301;23;20367;-83
2022/10/18 20:55:13;;;;;;;0.20;0.00;;;20.30;99.90;;;;;;25644176;23;20898;-84
2022/10/18 21:05:18;;;;;;;0.20;0.00;;;20.20;99.90;;;;;;25616197;23;20466;-84
2022/10/18 21:15:21;;;;;;;0.20;0.00;;;20.10;99.90;;;;;;25639970;23;20372;-78
2022/10/18 21:25:26;;;;;;;0.20;0.00;;;20.10;99.90;;;;;;25590352;23;20383;-83
2022/10/18 21:35:34;;;;;;;0.20;0.00;;;19.90;99.90;;;;;;25621090;23;20375;-86
2022/10/18 21:45:39;;;;;;;0.20;0.00;;;19.80;99.90;;;;;;25650277;23;20395;-87
2022/10/18 21:55:43;;;;;;;0.20;0.00;;;19.70;99.90;;;;;;25644016;23;20372;-84
2022/10/18 22:05:57;;;;;;;0.20;0.00;;;19.70;99.90;;;;;;25620336;23;20365;-85
2022/10/18 22:16:02;;;;;;;0.20;0.00;;;19.50;99.90;;;;;;25645410;23;20367;-84
2022/10/18 22:26:10;;;;;;;0.20;0.00;;;19.50;99.90;;;;;;25621247;23;20376;-85
2022/10/18 22:36:14;;;;;;;0.20;0.00;;;19.50;99.90;;;;;;25645104;23;20398;-85
2022/10/18 22:46:19;;;;;;;0.20;0.00;;;19.40;99.90;;;;;;25619001;23;20376;-85
2022/10/18 22:56:23;;;;;;;0.20;0.00;;;19.40;99.90;;;;;;25645172;23;20380;-85
2022/10/18 23:06:30;;;;;;;0.20;0.00;;;19.30;99.90;;;;;;25653349;23;20426;-87
2022/10/18 23:16:34;;;;;;;0.20;0.00;;;19.30;99.90;;;;;;25622542;23;20383;-86
2022/10/18 23:26:39;;;;;;;0.20;0.00;;;19.30;99.90;;;;;;25617866;23;20411;-82
2022/10/18 23:36:43;;;;;;;0.20;0.10;;;19.40;99.90;;;;;;25621005;23;20391;-83
2022/10/18 23:46:53;;;;;;;0.20;0.00;;;19.30;99.90;;;;;;25616050;23;20373;-83
2022/10/18 23:56:57;;;;;;;0.20;0.00;;;19.20;99.90;;;;;;25618382;23;20450;-83
